createdAt,value
2022-12-24T00:01:37.960Z,97605.51
2022-12-24T00:12:06.116Z,97583.52
2022-12-24T00:22:33.529Z,97555.84
2022-12-24T00:33:01.882Z,97545.50
2022-12-24T00:43:30.665Z,97534.88
2022-12-24T00:53:58.293Z,97531.58
2022-12-24T01:04:43.712Z,97525.63
2022-12-24T01:15:13.885Z,97549.85
2022-12-24T01:25:41.999Z,97548.70
2022-12-24T01:36:10.825Z,97547.87
2022-12-24T01:46:38.770Z,97539.95
2022-12-24T01:57:09.860Z,97521.52
2022-12-24T02:07:38.758Z,97516.41
2022-12-24T02:18:08.403Z,97523.45
2022-12-24T02:29:00.980Z,97528.46
2022-12-24T02:39:35.051Z,97517.66
2022-12-24T02:50:04.795Z,97529.04
2022-12-24T03:00:42.102Z,97524.15
2022-12-24T03:11:12.991Z,97549.79
2022-12-24T03:21:44.580Z,97567.39
2022-12-24T03:32:12.072Z,97573.67
2022-12-24T03:42:40.648Z,97581.33
2022-12-24T03:53:08.284Z,97589.94
2022-12-24T04:03:35.799Z,97595.09
2022-12-24T04:14:03.678Z,97595.72
2022-12-24T04:24:31.243Z,97601.21
2022-12-24T04:34:59.034Z,97602.77
2022-12-24T04:45:26.641Z,97601.02
2022-12-24T04:55:54.894Z,97598.66
2022-12-24T05:06:25.411Z,97613.20
2022-12-24T05:16:53.548Z,97616.64
2022-12-24T05:27:22.031Z,97621.63
2022-12-24T05:37:49.540Z,97627.20
2022-12-24T05:48:17.180Z,97620.42
2022-12-24T05:58:45.476Z,97627.09
2022-12-24T06:09:13.041Z,97644.79
2022-12-24T06:19:40.725Z,97653.76
2022-12-24T06:30:10.254Z,97666.45
2022-12-24T06:40:39.091Z,97681.38
2022-12-24T06:51:07.238Z,97691.77
2022-12-24T07:01:34.827Z,97707.80
2022-12-24T07:12:02.547Z,97718.11
2022-12-24T07:22:30.159Z,97729.91
2022-12-24T07:32:57.917Z,97733.89
2022-12-24T07:43:25.900Z,97743.02
2022-12-24T07:53:53.817Z,97752.48
2022-12-24T08:04:21.458Z,97766.09
2022-12-24T08:14:49.207Z,97771.98
2022-12-24T08:25:17.542Z,97775.36
2022-12-24T08:35:50.484Z,97800.61
2022-12-24T08:46:18.098Z,97819.79
2022-12-24T08:56:45.800Z,97827.54
2022-12-24T09:07:13.705Z,97838.55
2022-12-24T09:17:41.765Z,97856.17
2022-12-24T09:28:09.463Z,97865.48
2022-12-24T09:38:37.809Z,97867.67
2022-12-24T09:49:12.090Z,97879.70
2022-12-24T09:59:45.258Z,97875.67
2022-12-24T10:10:24.375Z,97883.70
2022-12-24T10:21:00.191Z,97907.95
2022-12-24T10:31:31.188Z,97927.48
2022-12-24T10:42:03.021Z,97936.36
2022-12-24T10:52:34.830Z,97955.73
2022-12-24T11:03:25.623Z,97972.00
2022-12-24T11:13:58.652Z,97987.91
2022-12-24T11:24:30.122Z,97984.10
2022-12-24T11:35:01.548Z,98002.37
2022-12-24T11:45:31.266Z,98007.49
2022-12-24T11:56:02.204Z,98034.07
2022-12-24T12:06:34.629Z,98055.31
2022-12-24T12:17:14.020Z,98063.83
2022-12-24T12:27:47.386Z,98085.91
2022-12-24T12:38:20.917Z,98096.59
2022-12-24T12:49:03.107Z,98111.49
2022-12-24T12:59:36.742Z,98133.30
2022-12-24T13:10:34.050Z,98147.50
2022-12-24T13:21:01.916Z,98174.12
2022-12-24T13:31:31.227Z,98194.70
2022-12-24T13:41:59.116Z,98206.65
2022-12-24T13:52:35.334Z,98221.53
2022-12-24T14:03:06.221Z,98238.86
2022-12-24T14:14:10.130Z,98251.85
2022-12-24T14:24:43.607Z,98273.36
2022-12-24T14:35:19.101Z,98292.39
2022-12-24T14:45:53.101Z,98309.36
2022-12-24T14:56:22.620Z,98335.01
2022-12-24T15:06:53.831Z,98349.39
2022-12-24T15:17:21.678Z,98363.60
2022-12-24T15:27:49.259Z,98377.63
2022-12-24T15:38:27.997Z,98392.84
2022-12-24T15:48:57.752Z,98402.30
2022-12-24T15:59:32.468Z,98417.02
2022-12-24T16:10:15.005Z,98424.42
2022-12-24T16:20:47.579Z,98426.11
2022-12-24T16:31:20.714Z,98439.35
2022-12-24T16:42:05.885Z,98462.59
2022-12-24T16:52:34.769Z,98472.48
2022-12-24T17:03:02.535Z,98504.73
2022-12-24T17:13:30.239Z,98505.34
2022-12-24T17:23:57.796Z,98506.95
2022-12-24T17:34:25.471Z,98513.73
2022-12-24T17:44:53.369Z,98529.16
2022-12-24T17:55:22.637Z,98533.02
2022-12-24T18:05:50.335Z,98536.49
2022-12-24T18:16:21.652Z,98557.36
2022-12-24T18:26:49.677Z,98568.27
2022-12-24T18:37:17.375Z,98581.92
2022-12-24T18:47:45.615Z,98596.97
2022-12-24T18:58:13.810Z,98609.19
2022-12-24T19:19:29.680Z,98627.46
2022-12-24T19:29:57.325Z,98628.67
2022-12-24T19:40:24.969Z,98645.60
2022-12-24T19:50:52.791Z,98654.02
2022-12-24T20:01:22.824Z,98654.25
2022-12-24T20:11:52.453Z,98661.49
2022-12-24T20:22:20.162Z,98666.10
2022-12-24T20:32:48.014Z,98677.17
2022-12-24T20:43:18.596Z,98688.85
2022-12-24T20:53:50.293Z,98702.64
2022-12-24T21:04:17.849Z,98704.23
2022-12-24T21:14:45.376Z,98705.11
2022-12-24T21:25:14.519Z,98722.10
2022-12-24T21:35:42.318Z,98727.84
2022-12-24T21:46:11.532Z,98733.58
2022-12-24T21:56:53.556Z,98746.24
2022-12-24T22:07:42.238Z,98767.51
2022-12-24T22:18:09.778Z,98769.73
2022-12-24T22:28:37.228Z,98774.77
2022-12-24T22:39:04.953Z,98763.26
2022-12-24T22:49:33.734Z,98776.23
2022-12-24T22:59:59.768Z,98775.92
2022-12-24T23:10:27.544Z,98774.17
2022-12-24T23:20:55.069Z,98775.47
2022-12-24T23:31:23.434Z,98785.36
2022-12-24T23:41:51.203Z,98803.03
2022-12-24T23:52:19.302Z,98798.73
